Time;durP1;ratioP1;P1;durP2;ratioP2;P2;SDS_P1;SDS_P2;PMS_P1;PMS_P2;Temp;Humidity;BMP_temperature;BMP_pressure;BME280_temperature;BME280_humidity;BME280_pressure;Samples;Min_cycle;Max_cycle;Signal;HPM_P1;HPM_P2
2023/03/12 00:01:40;;;;;;;6.53;3.10;;;;;;;;;;5001428;28;20442;-83
2023/03/12 00:04:12;;;;;;;9.98;3.20;;;;;;;;;;5015792;28;20434;-82
2023/03/12 00:06:45;;;;;;;9.27;3.38;;;;;;;;;;5001198;28;20424;-84
2023/03/12 00:09:18;;;;;;;7.63;3.50;;;;;;;;;;5002503;28;20428;-82
2023/03/12 00:11:52;;;;;;;10.85;3.60;;;;;;;;;;5000144;28;20434;-83
2023/03/12 00:14:25;;;;;;;8.98;3.88;;;;;;;;;;5002268;28;20425;-83
2023/03/12 00:16:58;;;;;;;9.37;3.93;;;;;;;;;;5000389;28;20437;-83
2023/03/12 00:19:30;;;;;;;10.15;4.28;;;;;;;;;;4998255;28;20431;-84
2023/03/12 00:21:58;;;;;;;13.27;4.30;;;;;;;;;;5002553;28;20429;-83
2023/03/12 00:24:31;;;;;;;10.10;4.20;;;;;;;;;;5001215;28;20432;-84
2023/03/12 00:27:06;;;;;;;11.98;4.65;;;;;;;;;;4999788;28;20457;-83
2023/03/12 00:29:39;;;;;;;11.07;4.57;;;;;;;;;;4999527;28;20434;-83
2023/03/12 00:32:11;;;;;;;10.40;4.43;;;;;;;;;;5008515;28;20809;-83
2023/03/12 00:34:50;;;;;;;9.85;4.43;;;;;;;;;;5004719;28;20429;-83
2023/03/12 00:37:18;;;;;;;9.73;4.78;;;;;;;;;;5005432;28;20426;-83
2023/03/12 00:39:51;;;;;;;9.45;4.25;;;;;;;;;;5009369;28;20440;-82
2023/03/12 00:42:25;;;;;;;12.93;5.03;;;;;;;;;;5009063;28;20432;-82
2023/03/12 00:44:58;;;;;;;11.70;5.15;;;;;;;;;;5005029;28;20421;-83
2023/03/12 00:47:31;;;;;;;9.93;4.90;;;;;;;;;;5007413;28;20908;-83
2023/03/12 00:50:04;;;;;;;10.10;4.78;;;;;;;;;;5003408;28;20424;-84
2023/03/12 00:52:32;;;;;;;11.00;4.65;;;;;;;;;;5003673;28;20434;-83
2023/03/12 00:55:05;;;;;;;12.73;5.38;;;;;;;;;;5003018;28;20433;-83
2023/03/12 00:57:39;;;;;;;10.10;4.90;;;;;;;;;;5021959;28;20439;-83
2023/03/12 01:00:09;;;;;;;11.25;5.10;;;;;;;;;;5009850;28;20688;-83
2023/03/12 01:02:42;;;;;;;10.68;5.10;;;;;;;;;;5003515;28;20446;-83
2023/03/12 01:05:11;;;;;;;11.88;5.03;;;;;;;;;;5004508;28;20733;-83
2023/03/12 01:07:44;;;;;;;10.55;5.20;;;;;;;;;;5009417;28;20441;-83
2023/03/12 01:10:18;;;;;;;16.00;5.63;;;;;;;;;;5016163;28;20507;-83
2023/03/12 01:12:52;;;;;;;10.60;5.78;;;;;;;;;;5006979;28;20516;-83
2023/03/12 01:15:20;;;;;;;10.50;5.17;;;;;;;;;;5010004;28;20503;-83
2023/03/12 01:17:52;;;;;;;11.07;5.60;;;;;;;;;;5016955;28;20778;-83
2023/03/12 01:20:25;;;;;;;11.30;5.72;;;;;;;;;;5016920;28;20426;-83
2023/03/12 01:22:53;;;;;;;13.57;6.55;;;;;;;;;;5004532;28;20425;-83
2023/03/12 01:25:25;;;;;;;12.65;6.15;;;;;;;;;;5002461;28;20785;-83
2023/03/12 01:28:00;;;;;;;12.10;6.07;;;;;;;;;;5008057;28;20445;-83
2023/03/12 01:30:34;;;;;;;14.53;6.57;;;;;;;;;;5016442;28;20572;-83
2023/03/12 01:33:06;;;;;;;11.95;5.75;;;;;;;;;;5010163;28;20436;-84
2023/03/12 01:35:40;;;;;;;14.65;5.88;;;;;;;;;;5009499;28;20424;-84
2023/03/12 01:38:13;;;;;;;11.67;5.87;;;;;;;;;;5000005;28;20435;-83
2023/03/12 01:40:42;;;;;;;11.38;6.10;;;;;;;;;;5016592;28;20424;-83
2023/03/12 01:43:24;;;;;;;18.42;6.18;;;;;;;;;;5016315;28;20436;-83
2023/03/12 01:46:01;;;;;;;13.37;6.03;;;;;;;;;;5017538;28;20418;-83
2023/03/12 01:48:31;;;;;;;10.57;6.03;;;;;;;;;;5008972;28;20963;-83
2023/03/12 01:51:06;;;;;;;12.45;6.32;;;;;;;;;;5015538;28;20429;-83
2023/03/12 01:53:41;;;;;;;10.93;5.80;;;;;;;;;;5001983;28;20518;-82
2023/03/12 01:56:09;;;;;;;14.30;6.53;;;;;;;;;;5019518;28;20455;-83
2023/03/12 01:58:45;;;;;;;15.77;6.75;;;;;;;;;;5005675;28;20437;-83
2023/03/12 02:01:14;;;;;;;14.85;6.00;;;;;;;;;;5019684;28;20421;-82
2023/03/12 02:03:49;;;;;;;15.48;6.60;;;;;;;;;;5008203;28;20425;-83
2023/03/12 02:06:25;;;;;;;12.60;6.25;;;;;;;;;;5015192;28;20928;-83
2023/03/12 02:08:53;;;;;;;12.93;6.55;;;;;;;;;;5005492;28;20440;-83
2023/03/12 02:11:26;;;;;;;15.65;6.82;;;;;;;;;;5003662;28;20432;-83
2023/03/12 02:13:55;;;;;;;16.25;7.28;;;;;;;;;;5007467;28;20438;-83
2023/03/12 02:16:23;;;;;;;12.75;6.93;;;;;;;;;;5002582;28;20826;-82
2023/03/12 02:18:52;;;;;;;11.18;6.80;;;;;;;;;;5004412;28;20430;-83
2023/03/12 02:21:27;;;;;;;14.45;7.10;;;;;;;;;;5002423;28;20421;-83
2023/03/12 02:24:02;;;;;;;13.68;6.97;;;;;;;;;;5013869;28;20441;-83
2023/03/12 02:26:38;;;;;;;13.70;7.18;;;;;;;;;;5002745;28;20439;-83
2023/03/12 02:29:06;;;;;;;13.38;7.28;;;;;;;;;;5006108;28;20437;-84
2023/03/12 02:31:42;;;;;;;13.10;7.03;;;;;;;;;;5002228;28;20434;-83
2023/03/12 02:34:10;;;;;;;16.52;7.60;;;;;;;;;;5000788;28;20432;-84
2023/03/12 02:36:43;;;;;;;16.23;8.00;;;;;;;;;;5017251;28;20429;-84
2023/03/12 02:39:16;;;;;;;15.77;8.10;;;;;;;;;;5015151;28;20435;-82
2023/03/12 02:41:52;;;;;;;14.93;8.15;;;;;;;;;;5009078;28;20428;-83
2023/03/12 02:44:26;;;;;;;15.20;7.95;;;;;;;;;;5014301;28;20429;-83
2023/03/12 02:47:00;;;;;;;14.82;8.18;;;;;;;;;;5006283;28;20761;-84
2023/03/12 02:49:34;;;;;;;20.08;8.40;;;;;;;;;;5006473;28;20434;-84
2023/03/12 02:52:02;;;;;;;16.02;8.00;;;;;;;;;;5015338;28;20438;-84
2023/03/12 02:54:35;;;;;;;16.93;9.13;;;;;;;;;;5015393;28;20526;-83
2023/03/12 02:57:09;;;;;;;17.50;8.85;;;;;;;;;;5016590;28;20440;-84
2023/03/12 02:59:42;;;;;;;20.38;9.82;;;;;;;;;;5007679;28;20447;-84
2023/03/12 03:02:15;;;;;;;17.43;9.53;;;;;;;;;;5016021;28;20437;-82
2023/03/12 03:04:43;;;;;;;20.55;9.73;;;;;;;;;;5006636;28;20459;-83
2023/03/12 03:07:11;;;;;;;18.05;9.73;;;;;;;;;;5003086;28;20432;-83
2023/03/12 03:09:44;;;;;;;21.73;9.90;;;;;;;;;;5017180;28;20433;-83
2023/03/12 03:12:13;;;;;;;21.05;10.10;;;;;;;;;;5007795;28;20936;-83
2023/03/12 03:14:41;;;;;;;21.07;9.83;;;;;;;;;;5015872;28;20435;-83
2023/03/12 03:17:14;;;;;;;20.65;10.45;;;;;;;;;;4999928;28;20944;-83
2023/03/12 03:19:42;;;;;;;16.65;9.10;;;;;;;;;;5000916;28;20431;-83
2023/03/12 03:22:10;;;;;;;18.90;9.68;;;;;;;;;;5006875;28;20456;-81
2023/03/12 03:24:38;;;;;;;22.97;10.00;;;;;;;;;;5001221;28;20530;-84
2023/03/12 03:27:06;;;;;;;23.42;10.18;;;;;;;;;;5015407;28;20428;-84
2023/03/12 03:29:35;;;;;;;17.67;9.82;;;;;;;;;;5006953;28;20792;-83
2023/03/12 03:32:08;;;;;;;21.65;10.30;;;;;;;;;;5014886;28;20426;-84
2023/03/12 03:34:41;;;;;;;21.35;9.80;;;;;;;;;;5007444;28;20436;-83
2023/03/12 03:37:09;;;;;;;21.17;9.85;;;;;;;;;;5019660;28;20438;-83
2023/03/12 03:39:41;;;;;;;24.02;9.98;;;;;;;;;;5006566;28;20938;-84
2023/03/12 03:42:09;;;;;;;25.77;10.38;;;;;;;;;;5017216;28;20477;-84
2023/03/12 03:44:38;;;;;;;22.70;10.40;;;;;;;;;;5020115;28;20433;-84
2023/03/12 03:47:06;;;;;;;23.02;11.02;;;;;;;;;;5012551;28;20955;-83
2023/03/12 03:49:34;;;;;;;24.52;11.07;;;;;;;;;;5000933;28;20429;-82
2023/03/12 03:52:02;;;;;;;22.43;10.60;;;;;;;;;;5011335;28;20437;-84
2023/03/12 03:54:36;;;;;;;21.50;11.05;;;;;;;;;;5007125;28;20428;-83
2023/03/12 03:57:09;;;;;;;25.52;11.38;;;;;;;;;;5014445;28;20429;-84
2023/03/12 03:59:43;;;;;;;24.30;11.85;;;;;;;;;;4998625;28;20424;-84
2023/03/12 04:02:11;;;;;;;23.95;11.38;;;;;;;;;;5006456;28;20437;-84
2023/03/12 04:04:39;;;;;;;26.75;11.98;;;;;;;;;;5011266;28;20428;-84
2023/03/12 04:07:08;;;;;;;22.98;11.80;;;;;;;;;;5020479;28;20446;-83
2023/03/12 04:09:41;;;;;;;25.98;12.38;;;;;;;;;;5010539;28;20440;-83
2023/03/12 04:12:09;;;;;;;22.83;11.45;;;;;;;;;;5004157;28;20428;-83
2023/03/12 04:14:40;;;;;;;25.00;12.00;;;;;;;;;;5020509;28;22453;-83
2023/03/12 04:17:10;;;;;;;25.17;12.30;;;;;;;;;;5002382;28;20430;-83
2023/03/12 04:19:38;;;;;;;24.88;11.93;;;;;;;;;;5014795;28;20434;-84
2023/03/12 04:22:11;;;;;;;25.48;11.90;;;;;;;;;;5001285;28;20437;-84
2023/03/12 04:24:44;;;;;;;29.20;12.48;;;;;;;;;;5006360;28;20434;-84
2023/03/12 04:27:17;;;;;;;28.65;12.98;;;;;;;;;;5010135;28;20459;-84
2023/03/12 04:29:45;;;;;;;24.03;12.23;;;;;;;;;;5001443;28;20438;-84
2023/03/12 04:32:14;;;;;;;26.48;11.73;;;;;;;;;;5017788;28;20432;-83
2023/03/12 04:34:47;;;;;;;25.27;11.57;;;;;;;;;;5009243;28;20436;-84
2023/03/12 04:37:20;;;;;;;26.40;12.38;;;;;;;;;;5023278;28;20424;-82
2023/03/12 04:39:53;;;;;;;25.23;12.30;;;;;;;;;;5019531;28;20437;-84
2023/03/12 04:42:26;;;;;;;25.25;12.82;;;;;;;;;;5020820;28;20429;-83
2023/03/12 04:44:54;;;;;;;27.77;12.93;;;;;;;;;;5003768;28;20440;-83
2023/03/12 04:47:29;;;;;;;27.50;12.68;;;;;;;;;;5001341;28;20437;-83
2023/03/12 04:49:57;;;;;;;26.38;13.10;;;;;;;;;;5002354;28;20430;-83
2023/03/12 04:52:31;;;;;;;24.50;13.25;;;;;;;;;;5010583;28;20440;-84
2023/03/12 04:54:59;;;;;;;25.77;12.50;;;;;;;;;;5003312;28;20433;-84
2023/03/12 04:57:32;;;;;;;26.83;12.13;;;;;;;;;;5002818;28;20444;-84
2023/03/12 05:00:09;;;;;;;27.10;11.93;;;;;;;;;;5009090;28;20444;-82
2023/03/12 05:02:44;;;;;;;24.80;13.00;;;;;;;;;;5009804;28;20449;-84
2023/03/12 05:05:17;;;;;;;27.40;12.90;;;;;;;;;;5019826;28;20432;-83
2023/03/12 05:07:45;;;;;;;29.73;13.70;;;;;;;;;;5006398;28;20434;-84
2023/03/12 05:10:18;;;;;;;26.70;13.05;;;;;;;;;;5016304;28;20430;-84
2023/03/12 05:12:51;;;;;;;26.73;13.00;;;;;;;;;;5018047;28;20437;-82
2023/03/12 05:15:20;;;;;;;27.38;13.48;;;;;;;;;;5017542;28;20758;-84
2023/03/12 05:17:49;;;;;;;24.92;12.93;;;;;;;;;;5009984;28;20434;-83
2023/03/12 05:20:22;;;;;;;26.75;12.85;;;;;;;;;;5008279;28;20916;-84
2023/03/12 05:22:55;;;;;;;27.33;13.27;;;;;;;;;;5016302;28;21000;-84
2023/03/12 05:25:23;;;;;;;30.83;13.40;;;;;;;;;;5017975;28;20431;-84
2023/03/12 05:27:56;;;;;;;28.63;13.27;;;;;;;;;;5003381;28;20932;-84
2023/03/12 05:30:29;;;;;;;34.83;15.73;;;;;;;;;;5019508;28;20453;-84
2023/03/12 05:33:03;;;;;;;24.90;13.27;;;;;;;;;;5020288;28;21286;-83
2023/03/12 05:35:31;;;;;;;27.08;12.93;;;;;;;;;;5016107;28;20790;-83
2023/03/12 05:37:59;;;;;;;30.67;14.15;;;;;;;;;;5001932;28;20924;-83
2023/03/12 05:40:27;;;;;;;33.45;15.18;;;;;;;;;;5007934;28;20444;-83
2023/03/12 05:43:00;;;;;;;30.17;15.40;;;;;;;;;;5017513;28;20441;-83
2023/03/12 05:45:35;;;;;;;36.67;15.07;;;;;;;;;;5007768;28;20439;-83
2023/03/12 05:48:09;;;;;;;36.78;16.35;;;;;;;;;;5008696;28;20450;-84
2023/03/12 05:50:37;;;;;;;43.17;17.10;;;;;;;;;;5007657;28;20426;-83
2023/03/12 05:53:10;;;;;;;41.13;16.02;;;;;;;;;;5000638;28;20431;-84
2023/03/12 05:55:45;;;;;;;35.55;15.63;;;;;;;;;;5018983;28;20440;-83
2023/03/12 05:58:13;;;;;;;38.90;16.60;;;;;;;;;;5000320;28;20437;-84
2023/03/12 06:00:43;;;;;;;47.67;20.15;;;;;;;;;;5016734;28;20765;-84
2023/03/12 06:03:17;;;;;;;40.53;17.93;;;;;;;;;;5013975;28;20524;-84
2023/03/12 06:05:53;;;;;;;35.90;17.30;;;;;;;;;;5013998;28;20445;-83
2023/03/12 06:08:27;;;;;;;34.17;15.63;;;;;;;;;;5009420;28;20432;-84
2023/03/12 06:10:54;;;;;;;32.85;14.70;;;;;;;;;;5017282;28;20435;-84
2023/03/12 06:13:24;;;;;;;34.88;15.07;;;;;;;;;;5003263;28;20417;-83
2023/03/12 06:16:02;;;;;;;30.95;15.25;;;;;;;;;;4999884;28;20783;-84
2023/03/12 06:18:36;;;;;;;26.10;13.45;;;;;;;;;;5015790;28;20437;-82
2023/03/12 06:21:11;;;;;;;24.80;12.80;;;;;;;;;;5015595;28;20978;-83
2023/03/12 06:23:45;;;;;;;26.50;12.65;;;;;;;;;;5000747;28;20432;-85
2023/03/12 06:26:23;;;;;;;24.93;12.47;;;;;;;;;;4999077;28;20436;-84
2023/03/12 06:28:55;;;;;;;27.83;12.75;;;;;;;;;;5006091;28;20452;-84
2023/03/12 06:31:28;;;;;;;24.05;12.27;;;;;;;;;;5003588;28;20758;-84
2023/03/12 06:33:57;;;;;;;23.77;11.70;;;;;;;;;;5003819;28;20436;-84
2023/03/12 06:36:25;;;;;;;23.77;11.90;;;;;;;;;;5000076;28;20422;-84
2023/03/12 06:38:53;;;;;;;22.58;11.60;;;;;;;;;;4999922;28;20432;-83
2023/03/12 06:41:26;;;;;;;24.02;11.77;;;;;;;;;;5013819;28;20433;-84
2023/03/12 06:44:00;;;;;;;22.48;11.60;;;;;;;;;;5016904;28;20949;-85
2023/03/12 06:46:33;;;;;;;21.45;11.30;;;;;;;;;;5002334;28;20434;-84
2023/03/12 06:49:07;;;;;;;23.52;11.73;;;;;;;;;;5003050;28;20977;-83
2023/03/12 06:51:40;;;;;;;19.40;10.82;;;;;;;;;;5002547;28;20442;-84
2023/03/12 06:54:13;;;;;;;20.33;9.95;;;;;;;;;;4999127;28;20427;-84
2023/03/12 06:56:41;;;;;;;17.70;10.70;;;;;;;;;;5000660;28;20424;-85
2023/03/12 06:59:09;;;;;;;21.38;11.00;;;;;;;;;;5017122;28;20433;-84
2023/03/12 07:01:41;;;;;;;23.42;10.15;;;;;;;;;;5002586;28;20439;-83
2023/03/12 07:04:16;;;;;;;19.90;9.70;;;;;;;;;;5003352;28;20428;-85
2023/03/12 07:06:50;;;;;;;18.57;9.23;;;;;;;;;;5003188;28;20421;-83
2023/03/12 07:09:23;;;;;;;19.30;9.63;;;;;;;;;;5013217;28;20907;-85
2023/03/12 07:11:50;;;;;;;16.10;9.20;;;;;;;;;;5005237;28;20440;-84
2023/03/12 07:14:19;;;;;;;15.85;9.07;;;;;;;;;;5000182;28;20425;-84
2023/03/12 07:16:52;;;;;;;17.38;9.75;;;;;;;;;;5019433;28;20442;-87
2023/03/12 07:19:21;;;;;;;16.33;8.85;;;;;;;;;;5003613;28;20898;-84
2023/03/12 07:21:49;;;;;;;16.93;9.33;;;;;;;;;;4999510;28;20551;-85
2023/03/12 07:24:21;;;;;;;15.18;9.30;;;;;;;;;;5013905;28;20447;-84
2023/03/12 07:26:54;;;;;;;20.58;9.93;;;;;;;;;;5000437;28;20438;-86
2023/03/12 07:29:27;;;;;;;24.13;12.15;;;;;;;;;;5000509;28;20441;-82
2023/03/12 07:31:55;;;;;;;18.77;9.30;;;;;;;;;;4999856;28;20429;-85
2023/03/12 07:34:29;;;;;;;16.92;9.85;;;;;;;;;;5000662;28;20796;-84
2023/03/12 07:37:02;;;;;;;18.23;9.88;;;;;;;;;;5015920;28;20928;-85
2023/03/12 07:39:35;;;;;;;14.07;8.48;;;;;;;;;;5020672;28;20422;-86
2023/03/12 07:42:07;;;;;;;16.92;8.77;;;;;;;;;;5009641;28;20440;-84
2023/03/12 07:44:42;;;;;;;18.50;8.90;;;;;;;;;;5019456;28;20441;-84
2023/03/12 07:47:10;;;;;;;15.82;8.20;;;;;;;;;;5005815;28;20451;-83
2023/03/12 07:49:44;;;;;;;14.80;8.53;;;;;;;;;;5003289;28;20425;-85
2023/03/12 07:52:18;;;;;;;15.98;9.15;;;;;;;;;;5005980;28;20436;-83
2023/03/12 07:54:46;;;;;;;17.42;8.93;;;;;;;;;;5005824;28;20426;-83
2023/03/12 07:57:14;;;;;;;15.43;9.10;;;;;;;;;;5017865;28;20455;-84
2023/03/12 07:59:47;;;;;;;19.33;9.60;;;;;;;;;;5002808;28;20919;-82
2023/03/12 08:02:15;;;;;;;16.15;8.63;;;;;;;;;;5018679;28;20439;-82
2023/03/12 08:04:49;;;;;;;14.13;8.80;;;;;;;;;;5018148;28;20445;-82
2023/03/12 08:07:22;;;;;;;16.50;9.02;;;;;;;;;;5006342;28;20857;-82
2023/03/12 08:09:54;;;;;;;15.98;9.23;;;;;;;;;;5017602;28;20425;-82
2023/03/12 08:12:27;;;;;;;17.80;8.65;;;;;;;;;;5003080;28;20440;-82
2023/03/12 08:14:55;;;;;;;16.88;8.68;;;;;;;;;;5006359;28;20436;-82
2023/03/12 08:17:28;;;;;;;20.97;10.60;;;;;;;;;;5002852;28;20431;-81
2023/03/12 08:19:57;;;;;;;16.70;9.53;;;;;;;;;;4989377;28;20440;-82
2023/03/12 08:22:25;;;;;;;27.38;14.50;;;;;;;;;;5018633;28;20439;-85
2023/03/12 08:24:57;;;;;;;26.83;12.80;;;;;;;;;;5004306;28;20429;-82
2023/03/12 08:27:30;;;;;;;27.95;14.38;;;;;;;;;;5002847;28;20436;-82
2023/03/12 08:29:58;;;;;;;19.63;10.68;;;;;;;;;;5003027;28;20788;-82
2023/03/12 08:32:31;;;;;;;21.85;11.23;;;;;;;;;;5015091;28;20422;-82
2023/03/12 08:35:06;;;;;;;25.08;12.65;;;;;;;;;;4999234;28;20967;-82
2023/03/12 08:37:38;;;;;;;19.33;10.20;;;;;;;;;;5002734;28;20426;-82
2023/03/12 08:40:12;;;;;;;17.92;8.73;;;;;;;;;;5018406;28;20439;-86
2023/03/12 08:42:45;;;;;;;14.93;8.05;;;;;;;;;;5004288;28;20439;-84
2023/03/12 08:45:18;;;;;;;15.80;8.30;;;;;;;;;;5003886;28;20458;-85
2023/03/12 08:47:45;;;;;;;17.48;8.63;;;;;;;;;;5014668;28;20464;-84
2023/03/12 08:50:21;;;;;;;15.98;8.30;;;;;;;;;;5000089;28;20758;-84
2023/03/12 08:52:53;;;;;;;15.90;8.17;;;;;;;;;;5014104;28;20524;-86
2023/03/12 08:55:27;;;;;;;14.32;6.68;;;;;;;;;;5003178;28;20429;-86
2023/03/12 08:57:55;;;;;;;13.48;6.95;;;;;;;;;;5001454;28;20429;-85
2023/03/12 09:00:28;;;;;;;13.55;7.10;;;;;;;;;;5002824;28;20526;-84
2023/03/12 09:02:57;;;;;;;16.13;6.95;;;;;;;;;;5004074;28;20447;-85
2023/03/12 09:05:28;;;;;;;11.27;5.97;;;;;;;;;;5014753;28;20443;-85
2023/03/12 09:08:01;;;;;;;15.02;7.07;;;;;;;;;;5001667;28;20437;-83
2023/03/12 09:10:34;;;;;;;13.27;6.28;;;;;;;;;;5000677;28;20440;-82
2023/03/12 09:13:07;;;;;;;14.93;6.80;;;;;;;;;;5000131;28;21027;-82
2023/03/12 09:15:40;;;;;;;11.65;6.35;;;;;;;;;;5000739;28;20812;-84
2023/03/12 09:18:13;;;;;;;14.85;7.03;;;;;;;;;;5002697;28;20436;-83
2023/03/12 09:20:47;;;;;;;13.10;6.87;;;;;;;;;;5016274;28;20935;-84
2023/03/12 09:23:20;;;;;;;12.38;6.25;;;;;;;;;;5003156;28;20434;-83
2023/03/12 09:25:53;;;;;;;13.63;7.07;;;;;;;;;;5002616;28;20934;-84
2023/03/12 09:28:26;;;;;;;15.20;6.20;;;;;;;;;;4998919;28;20426;-83
2023/03/12 09:31:01;;;;;;;12.90;6.22;;;;;;;;;;5002992;28;20433;-84
2023/03/12 09:33:29;;;;;;;13.35;6.05;;;;;;;;;;5016727;28;20436;-85
2023/03/12 09:36:07;;;;;;;12.48;4.88;;;;;;;;;;5001416;28;20446;-85
2023/03/12 09:38:36;;;;;;;9.88;4.68;;;;;;;;;;4999038;28;20426;-84
2023/03/12 09:41:05;;;;;;;12.02;4.70;;;;;;;;;;5002561;28;22016;-84
2023/03/12 09:43:40;;;;;;;13.95;5.15;;;;;;;;;;5001947;28;20433;-82
2023/03/12 09:46:14;;;;;;;10.50;4.40;;;;;;;;;;5016083;28;20848;-83
2023/03/12 09:48:48;;;;;;;10.52;4.28;;;;;;;;;;4998513;28;20429;-92
2023/03/12 09:51:20;;;;;;;10.55;4.18;;;;;;;;;;5004460;28;20485;-81
2023/03/12 09:53:53;;;;;;;9.98;4.22;;;;;;;;;;5018845;28;20433;-83
2023/03/12 09:56:27;;;;;;;8.98;3.80;;;;;;;;;;5003419;28;20417;-83
2023/03/12 09:59:00;;;;;;;9.73;3.83;;;;;;;;;;5007508;28;20447;-83
2023/03/12 10:01:32;;;;;;;9.57;4.03;;;;;;;;;;4999393;28;20430;-81
2023/03/12 10:04:24;;;;;;;8.35;3.95;;;;;;;;;;5000796;28;20424;-82
2023/03/12 10:06:56;;;;;;;7.53;3.78;;;;;;;;;;5016789;28;20451;-83
2023/03/12 10:09:42;;;;;;;8.73;3.90;;;;;;;;;;5002056;28;20426;-83
2023/03/12 10:12:14;;;;;;;11.70;3.78;;;;;;;;;;5002841;28;20409;-83
2023/03/12 10:14:53;;;;;;;10.13;3.70;;;;;;;;;;5002798;28;20432;-83
2023/03/12 10:17:35;;;;;;;10.85;4.18;;;;;;;;;;5000856;28;20424;-82
2023/03/12 10:20:22;;;;;;;9.73;3.38;;;;;;;;;;5004321;28;20421;-82
2023/03/12 10:22:55;;;;;;;11.25;3.83;;;;;;;;;;5015650;28;20775;-83
2023/03/12 10:25:27;;;;;;;12.90;4.63;;;;;;;;;;5016815;28;20425;-83
2023/03/12 10:28:02;;;;;;;8.70;3.58;;;;;;;;;;5000294;28;20437;-83
2023/03/12 10:30:31;;;;;;;8.55;3.30;;;;;;;;;;5015004;28;20792;-83
2023/03/12 10:33:03;;;;;;;7.38;3.22;;;;;;;;;;5018957;28;20434;-82
2023/03/12 10:35:36;;;;;;;9.50;3.20;;;;;;;;;;4998525;28;20769;-82
2023/03/12 10:38:13;;;;;;;9.67;3.40;;;;;;;;;;5006524;28;20436;-83
2023/03/12 10:40:47;;;;;;;9.73;3.25;;;;;;;;;;5001832;28;20927;-82
2023/03/12 10:43:20;;;;;;;10.83;3.37;;;;;;;;;;4998788;28;20438;-83
2023/03/12 10:45:52;;;;;;;10.20;3.40;;;;;;;;;;5000949;28;20437;-83
2023/03/12 10:48:25;;;;;;;11.15;3.80;;;;;;;;;;5013538;28;20441;-84
2023/03/12 10:51:03;;;;;;;10.88;3.80;;;;;;;;;;4981981;28;20484;-83
2023/03/12 10:53:33;;;;;;;9.50;3.60;;;;;;;;;;4990431;28;20422;-84
2023/03/12 10:56:07;;;;;;;7.28;3.60;;;;;;;;;;4992281;28;20991;-82
2023/03/12 10:58:36;;;;;;;7.97;3.65;;;;;;;;;;4969671;28;20867;-81
2023/03/12 11:01:04;;;;;;;8.40;3.67;;;;;;;;;;4973494;28;21904;-81
2023/03/12 11:03:37;;;;;;;13.68;5.00;;;;;;;;;;5006656;28;20423;-83
2023/03/12 11:06:19;;;;;;;12.50;5.13;;;;;;;;;;4997296;28;20536;-84
2023/03/12 11:09:07;;;;;;;10.48;4.70;;;;;;;;;;5007154;28;20458;-81
2023/03/12 11:11:35;;;;;;;10.70;5.13;;;;;;;;;;5000599;28;20450;-84
2023/03/12 11:14:07;;;;;;;10.85;5.25;;;;;;;;;;5004059;28;20450;-82
2023/03/12 11:16:40;;;;;;;10.73;5.20;;;;;;;;;;5007825;28;20445;-82
2023/03/12 11:19:12;;;;;;;15.23;5.93;;;;;;;;;;5003773;28;20454;-84
2023/03/12 11:21:55;;;;;;;11.83;5.43;;;;;;;;;;5003220;28;20457;-84
2023/03/12 11:24:29;;;;;;;17.27;5.97;;;;;;;;;;5004162;28;20427;-81
2023/03/12 11:27:05;;;;;;;12.77;5.60;;;;;;;;;;5009614;28;20423;-81
2023/03/12 11:29:40;;;;;;;12.23;5.95;;;;;;;;;;5005081;28;20960;-82
2023/03/12 11:32:16;;;;;;;12.38;5.10;;;;;;;;;;5001452;28;20426;-81
2023/03/12 11:34:51;;;;;;;10.38;4.40;;;;;;;;;;5009536;28;20442;-82
2023/03/12 11:37:27;;;;;;;8.15;4.50;;;;;;;;;;5007234;28;20430;-81
2023/03/12 11:40:13;;;;;;;13.65;5.75;;;;;;;;;;4998124;28;20786;-83
2023/03/12 11:42:48;;;;;;;12.98;5.05;;;;;;;;;;5000348;28;20449;-84
2023/03/12 11:45:26;;;;;;;15.43;6.32;;;;;;;;;;5005936;28;20415;-82
2023/03/12 11:48:03;;;;;;;11.57;5.25;;;;;;;;;;5004327;28;20446;-82
2023/03/12 11:50:40;;;;;;;18.92;7.88;;;;;;;;;;5002914;28;20442;-85
2023/03/12 11:53:23;;;;;;;11.65;4.93;;;;;;;;;;5016199;28;20434;-82
2023/03/12 11:56:01;;;;;;;9.52;4.30;;;;;;;;;;5002639;28;20481;-84
2023/03/12 11:58:54;;;;;;;9.38;4.50;;;;;;;;;;5002913;28;22212;-81
2023/03/12 12:01:30;;;;;;;11.85;4.20;;;;;;;;;;4995858;28;20437;-82
2023/03/12 12:04:13;;;;;;;9.48;4.20;;;;;;;;;;4997577;28;20965;-82
2023/03/12 12:06:52;;;;;;;9.03;4.10;;;;;;;;;;4999409;28;20439;-86
2023/03/12 12:09:28;;;;;;;8.77;3.85;;;;;;;;;;4997158;28;20431;-81
2023/03/12 12:12:03;;;;;;;7.30;3.47;;;;;;;;;;5000116;28;20438;-81
2023/03/12 12:14:37;;;;;;;10.57;3.80;;;;;;;;;;5004403;28;20549;-81
2023/03/12 12:17:10;;;;;;;9.10;4.10;;;;;;;;;;5003493;28;21225;-82
2023/03/12 12:19:49;;;;;;;8.95;3.65;;;;;;;;;;5003135;28;20427;-81
2023/03/12 12:22:32;;;;;;;7.13;3.45;;;;;;;;;;5003693;28;20438;-82
2023/03/12 12:25:17;;;;;;;9.45;4.00;;;;;;;;;;5006758;28;20453;-80
2023/03/12 12:27:56;;;;;;;7.22;3.50;;;;;;;;;;5011744;28;20431;-81
2023/03/12 12:30:35;;;;;;;7.28;2.85;;;;;;;;;;5007039;28;20443;-80
2023/03/12 12:33:15;;;;;;;7.63;3.00;;;;;;;;;;5004480;28;21076;-81
2023/03/12 12:35:43;;;;;;;6.80;2.53;;;;;;;;;;5008546;28;20445;-81
2023/03/12 12:38:14;;;;;;;8.90;2.67;;;;;;;;;;5022732;28;20427;-81
2023/03/12 12:40:47;;;;;;;7.60;2.80;;;;;;;;;;5008579;28;20453;-81
2023/03/12 12:43:26;;;;;;;7.68;2.90;;;;;;;;;;5002079;28;20431;-82
2023/03/12 12:46:01;;;;;;;7.53;2.47;;;;;;;;;;5007068;28;20964;-81
2023/03/12 12:48:31;;;;;;;8.55;2.70;;;;;;;;;;5010295;28;20426;-82
2023/03/12 12:51:05;;;;;;;6.57;2.50;;;;;;;;;;4980479;28;20439;-83
2023/03/12 12:53:37;;;;;;;10.20;2.90;;;;;;;;;;5009909;28;21667;-81
2023/03/12 12:56:14;;;;;;;6.47;2.40;;;;;;;;;;5007572;28;20974;-83
2023/03/12 12:59:02;;;;;;;10.13;2.75;;;;;;;;;;5003306;28;20959;-83
2023/03/12 13:01:36;;;;;;;7.45;2.60;;;;;;;;;;5006850;28;20794;-81
2023/03/12 13:04:10;;;;;;;9.17;2.20;;;;;;;;;;5005447;28;20525;-83
2023/03/12 13:06:54;;;;;;;6.07;2.43;;;;;;;;;;5020296;28;20493;-83
2023/03/12 13:09:37;;;;;;;7.30;2.90;;;;;;;;;;5036682;28;20442;-83
2023/03/12 13:12:14;;;;;;;6.63;2.30;;;;;;;;;;5021616;28;20446;-84
2023/03/12 13:14:49;;;;;;;8.27;2.20;;;;;;;;;;5022501;28;20820;-85
2023/03/12 13:17:29;;;;;;;7.27;2.40;;;;;;;;;;5023127;28;20438;-83
2023/03/12 13:19:59;;;;;;;6.55;2.40;;;;;;;;;;5022667;28;20421;-83
2023/03/12 13:22:46;;;;;;;5.50;2.30;;;;;;;;;;5022689;28;20429;-83
2023/03/12 13:25:26;;;;;;;6.10;2.20;;;;;;;;;;5006016;28;20791;-84
2023/03/12 13:28:00;;;;;;;7.53;2.10;;;;;;;;;;5027198;28;20803;-83
2023/03/12 13:30:48;;;;;;;6.38;2.30;;;;;;;;;;5023578;28;20436;-83
2023/03/12 13:33:35;;;;;;;9.02;2.50;;;;;;;;;;5024639;28;20907;-84
2023/03/12 13:36:11;;;;;;;10.88;4.53;;;;;;;;;;5019819;28;20937;-84
2023/03/12 13:38:51;;;;;;;7.78;2.83;;;;;;;;;;5022230;28;20399;-83
2023/03/12 13:41:31;;;;;;;5.95;2.30;;;;;;;;;;5037130;28;20435;-84
2023/03/12 13:44:28;;;;;;;8.80;2.42;;;;;;;;;;5023239;28;20437;-83
2023/03/12 13:47:04;;;;;;;5.45;2.30;;;;;;;;;;5006546;28;20461;-82
2023/03/12 13:49:40;;;;;;;7.78;2.30;;;;;;;;;;5024699;28;20431;-84
2023/03/12 13:52:21;;;;;;;6.33;2.70;;;;;;;;;;5024346;28;20441;-83
2023/03/12 13:54:59;;;;;;;8.25;3.78;;;;;;;;;;5025547;28;20462;-82
2023/03/12 13:57:35;;;;;;;7.93;3.00;;;;;;;;;;5035913;28;20440;-84
2023/03/12 14:00:15;;;;;;;9.60;3.72;;;;;;;;;;5022562;28;20426;-82
2023/03/12 14:02:52;;;;;;;8.07;2.42;;;;;;;;;;5021358;28;20443;-85
2023/03/12 14:05:21;;;;;;;7.47;2.70;;;;;;;;;;5021813;28;20540;-84
2023/03/12 14:07:57;;;;;;;5.55;2.15;;;;;;;;;;5034412;28;20427;-83
2023/03/12 14:10:33;;;;;;;7.10;2.30;;;;;;;;;;5025544;28;20439;-84
2023/03/12 14:13:15;;;;;;;6.68;1.90;;;;;;;;;;5024320;28;20427;-81
2023/03/12 14:15:46;;;;;;;4.88;2.20;;;;;;;;;;5033925;28;20769;-83
2023/03/12 14:18:18;;;;;;;7.85;2.63;;;;;;;;;;5038346;28;20905;-83
2023/03/12 14:20:50;;;;;;;5.88;2.22;;;;;;;;;;5021935;28;20438;-83
2023/03/12 14:23:18;;;;;;;8.33;3.00;;;;;;;;;;5023794;28;20486;-82
2023/03/12 14:25:47;;;;;;;6.78;2.30;;;;;;;;;;5020049;28;20433;-82
2023/03/12 14:28:20;;;;;;;6.32;2.30;;;;;;;;;;5020335;28;20496;-82
2023/03/12 14:30:58;;;;;;;7.35;2.67;;;;;;;;;;5020359;28;20431;-83
2023/03/12 14:33:34;;;;;;;6.67;2.30;;;;;;;;;;5033922;28;20435;-83
2023/03/12 14:36:06;;;;;;;5.82;2.40;;;;;;;;;;5035946;28;20438;-83
2023/03/12 14:38:35;;;;;;;7.22;2.40;;;;;;;;;;5020532;28;20435;-83
2023/03/12 14:41:12;;;;;;;9.55;2.58;;;;;;;;;;5020252;28;20449;-82
2023/03/12 14:43:45;;;;;;;7.20;2.40;;;;;;;;;;5021695;28;20427;-84
2023/03/12 14:46:14;;;;;;;6.97;2.30;;;;;;;;;;5018533;28;20425;-83
2023/03/12 14:48:49;;;;;;;6.72;2.50;;;;;;;;;;5033885;28;20434;-84
2023/03/12 14:51:23;;;;;;;7.60;2.33;;;;;;;;;;5024616;28;21003;-84
2023/03/12 14:53:56;;;;;;;6.50;2.63;;;;;;;;;;5019621;28;20438;-83
2023/03/12 14:56:31;;;;;;;4.93;2.22;;;;;;;;;;5035502;28;20444;-83
2023/03/12 14:59:19;;;;;;;5.22;2.50;;;;;;;;;;5035412;28;20440;-83
2023/03/12 15:01:58;;;;;;;5.45;2.35;;;;;;;;;;5020252;28;20438;-83
2023/03/12 15:04:33;;;;;;;6.13;2.47;;;;;;;;;;5014738;28;20445;-83
2023/03/12 15:07:07;;;;;;;6.57;2.40;;;;;;;;;;5019299;28;20786;-84